Time;durP1;ratioP1;P1;durP2;ratioP2;P2;SDS_P1;SDS_P2;PMS_P1;PMS_P2;Temp;Humidity;BMP_temperature;BMP_pressure;BME280_temperature;BME280_humidity;BME280_pressure;Samples;Min_cycle;Max_cycle;Signal;HPM_P1;HPM_P2
2022/04/11 00:02:09;;;;;;;5.20;3.15;;;2.80;99.90;;;;;;5002475;28;20037;-84
2022/04/11 00:04:35;;;;;;;5.28;3.47;;;2.70;99.90;;;;;;5003763;28;20115;-83
2022/04/11 00:07:01;;;;;;;6.22;3.58;;;2.70;99.90;;;;;;5006435;28;20027;-84
2022/04/11 00:09:27;;;;;;;8.02;3.60;;;2.60;99.90;;;;;;5002173;28;20288;-85
2022/04/11 00:11:52;;;;;;;5.47;2.80;;;2.60;99.90;;;;;;5005918;28;20553;-84
2022/04/11 00:14:18;;;;;;;10.70;3.22;;;2.60;99.90;;;;;;5002570;28;20026;-83
2022/04/11 00:16:45;;;;;;;5.32;3.58;;;2.60;99.90;;;;;;5005934;28;20036;-83
2022/04/11 00:19:10;;;;;;;10.00;3.50;;;2.60;99.90;;;;;;5003154;28;20030;-83
2022/04/11 00:21:36;;;;;;;8.95;4.22;;;2.60;99.90;;;;;;4998884;28;20034;-82
2022/04/11 00:24:02;;;;;;;8.07;3.72;;;2.50;99.90;;;;;;4997888;28;20022;-82
2022/04/11 00:26:27;;;;;;;4.50;3.00;;;2.50;99.90;;;;;;4997969;28;20026;-80
2022/04/11 00:28:55;;;;;;;5.13;3.00;;;2.50;99.90;;;;;;4997334;28;20127;-86
2022/04/11 00:31:21;;;;;;;8.73;3.58;;;2.50;99.90;;;;;;4998062;28;20038;-84
2022/04/11 00:33:47;;;;;;;8.60;3.55;;;2.50;99.90;;;;;;5004478;28;20030;-87
2022/04/11 00:36:13;;;;;;;8.10;3.47;;;2.50;99.90;;;;;;5000811;28;20611;-85
2022/04/11 00:38:38;;;;;;;5.88;3.40;;;2.50;99.90;;;;;;5001427;28;20030;-88
2022/04/11 00:41:04;;;;;;;4.95;3.30;;;2.50;99.90;;;;;;5000182;28;20034;-83
2022/04/11 00:43:35;;;;;;;5.35;3.45;;;2.50;99.90;;;;;;5000568;28;20092;-84
2022/04/11 00:46:02;;;;;;;5.50;3.30;;;2.50;99.90;;;;;;5016461;28;20030;-85
2022/04/11 00:48:29;;;;;;;7.72;3.72;;;2.50;99.90;;;;;;5019214;28;20030;-86
2022/04/11 00:51:23;;;;;;;5.20;3.10;;;2.50;99.90;;;;;;5019232;28;20030;-83
2022/04/11 00:53:51;;;;;;;5.03;3.30;;;2.50;99.90;;;;;;5012743;28;20067;-84
2022/04/11 00:56:18;;;;;;;4.80;2.85;;;2.50;99.90;;;;;;5015029;28;20030;-81
2022/04/11 00:58:46;;;;;;;7.00;3.40;;;2.60;99.90;;;;;;5014930;28;20030;-87
2022/04/11 01:01:15;;;;;;;7.15;2.95;;;2.70;99.90;;;;;;5013549;28;20029;-85
2022/04/11 01:03:40;;;;;;;6.40;2.92;;;2.90;99.90;;;;;;5013922;28;20028;-85
2022/04/11 01:06:07;;;;;;;6.18;2.88;;;3.10;99.90;;;;;;5013394;28;20026;-84
2022/04/11 01:08:33;;;;;;;5.20;2.95;;;3.30;99.90;;;;;;5014190;28;20049;-84
2022/04/11 01:11:00;;;;;;;6.63;3.15;;;3.30;99.90;;;;;;5013285;28;20122;-82
2022/04/11 01:13:26;;;;;;;6.13;3.35;;;3.30;99.90;;;;;;5014156;28;20072;-84
2022/04/11 01:15:57;;;;;;;8.27;3.05;;;3.30;99.90;;;;;;5012662;28;20033;-86
2022/04/11 01:18:23;;;;;;;5.40;3.33;;;3.40;99.90;;;;;;5013215;28;20038;-83
2022/04/11 01:20:49;;;;;;;4.88;2.88;;;3.40;99.90;;;;;;5012541;28;20521;-85
2022/04/11 01:23:14;;;;;;;3.20;2.53;;;3.30;99.90;;;;;;5013715;28;20026;-84
2022/04/11 01:25:40;;;;;;;4.90;2.42;;;3.40;99.90;;;;;;5013945;28;20072;-86
2022/04/11 01:28:06;;;;;;;7.72;2.55;;;3.40;99.90;;;;;;5013003;28;20030;-81
2022/04/11 01:30:32;;;;;;;5.63;2.45;;;3.40;99.90;;;;;;5013257;28;20038;-84
2022/04/11 01:32:58;;;;;;;5.05;2.65;;;3.40;99.90;;;;;;5013992;28;20037;-85
2022/04/11 01:35:26;;;;;;;5.30;2.63;;;3.40;99.90;;;;;;5012856;28;20034;-84
2022/04/11 01:37:53;;;;;;;5.50;2.78;;;3.50;99.90;;;;;;5012960;28;20030;-88
2022/04/11 01:40:18;;;;;;;5.40;3.05;;;3.60;99.90;;;;;;5027670;28;20032;-79
2022/04/11 01:42:44;;;;;;;6.20;2.78;;;3.60;99.90;;;;;;5037107;28;20018;-79
2022/04/11 01:45:11;;;;;;;5.43;2.67;;;3.60;99.90;;;;;;5011842;28;20050;-85
2022/04/11 01:47:40;;;;;;;9.65;2.85;;;3.70;99.90;;;;;;4995278;28;20113;-85
2022/04/11 01:50:07;;;;;;;4.20;2.75;;;3.80;99.90;;;;;;4996204;28;20030;-83
2022/04/11 01:52:33;;;;;;;3.28;2.28;;;3.80;99.90;;;;;;4993586;28;20594;-83
2022/04/11 01:55:01;;;;;;;6.00;2.33;;;3.90;99.90;;;;;;4994109;28;20030;-84
2022/04/11 01:57:28;;;;;;;5.28;2.50;;;4.00;99.90;;;;;;4992792;28;20030;-85
2022/04/11 01:59:54;;;;;;;3.80;2.13;;;4.00;99.90;;;;;;4994130;28;20030;-84
2022/04/11 02:02:20;;;;;;;8.80;2.50;;;4.00;99.90;;;;;;4993045;28;20034;-84
2022/04/11 02:04:45;;;;;;;3.90;2.17;;;4.00;99.90;;;;;;4996898;28;20037;-84
2022/04/11 02:07:11;;;;;;;4.28;2.33;;;3.90;99.90;;;;;;4994319;28;20428;-84
2022/04/11 02:09:36;;;;;;;3.88;1.88;;;3.90;99.90;;;;;;4993093;28;20490;-83
2022/04/11 02:12:02;;;;;;;10.13;2.15;;;3.80;99.90;;;;;;5002906;28;20106;-81
2022/04/11 02:14:28;;;;;;;4.90;2.42;;;3.80;99.90;;;;;;5010765;28;20026;-85
2022/04/11 02:16:53;;;;;;;6.82;2.17;;;3.80;99.90;;;;;;4993235;28;20041;-85
2022/04/11 02:19:20;;;;;;;4.43;2.50;;;3.80;99.90;;;;;;4992005;28;20019;-83
2022/04/11 02:21:45;;;;;;;4.53;2.10;;;3.80;99.90;;;;;;4992363;28;20019;-84
2022/04/11 02:24:11;;;;;;;7.22;2.35;;;3.80;99.90;;;;;;4993031;28;20026;-83
2022/04/11 02:26:36;;;;;;;4.55;2.30;;;3.80;99.90;;;;;;4992139;28;20076;-83
2022/04/11 02:29:02;;;;;;;4.97;1.90;;;3.80;99.90;;;;;;4991786;28;20026;-82
2022/04/11 02:31:28;;;;;;;3.05;2.13;;;3.80;99.90;;;;;;4991347;28;20030;-84
2022/04/11 02:33:53;;;;;;;5.18;2.10;;;3.90;99.90;;;;;;4991326;28;20034;-81
2022/04/11 02:36:19;;;;;;;6.95;2.42;;;3.90;99.90;;;;;;4991522;28;20019;-82
2022/04/11 02:38:45;;;;;;;3.42;2.17;;;4.00;99.90;;;;;;4991610;28;20528;-82
2022/04/11 02:41:10;;;;;;;5.57;2.67;;;4.10;99.90;;;;;;4992136;28;20030;-81
2022/04/11 02:43:37;;;;;;;6.43;2.30;;;4.10;99.90;;;;;;4991862;28;20099;-83
2022/04/11 02:46:02;;;;;;;7.50;2.63;;;4.10;99.90;;;;;;5009221;28;20037;-82
2022/04/11 02:48:28;;;;;;;4.30;2.20;;;4.10;99.90;;;;;;5011832;28;20022;-81
2022/04/11 02:50:53;;;;;;;7.80;2.20;;;4.10;99.90;;;;;;5011811;28;20056;-84
2022/04/11 02:53:19;;;;;;;7.53;2.20;;;4.10;99.90;;;;;;5012834;28;20181;-82
2022/04/11 02:55:45;;;;;;;5.55;2.38;;;4.10;99.90;;;;;;5013292;28;20030;-81
2022/04/11 02:58:10;;;;;;;4.75;1.85;;;4.00;99.90;;;;;;5014245;28;20084;-81
2022/04/11 03:00:36;;;;;;;3.92;2.20;;;4.10;99.90;;;;;;5016204;28;20034;-84
2022/04/11 03:03:02;;;;;;;4.30;1.95;;;4.10;99.90;;;;;;5013812;28;20022;-82
2022/04/11 03:05:27;;;;;;;4.10;2.30;;;4.00;99.90;;;;;;5012783;28;20484;-83
2022/04/11 03:07:53;;;;;;;6.85;2.45;;;4.10;99.90;;;;;;5012264;28;20032;-81
2022/04/11 03:10:19;;;;;;;6.32;2.33;;;4.10;99.90;;;;;;5012426;28;20033;-82
2022/04/11 03:12:45;;;;;;;5.82;2.17;;;4.00;99.90;;;;;;5010909;28;20374;-82
2022/04/11 03:15:10;;;;;;;5.10;2.28;;;4.10;99.90;;;;;;5011311;28;20036;-81
2022/04/11 03:17:36;;;;;;;8.23;2.40;;;3.90;99.90;;;;;;5011614;28;20034;-83
2022/04/11 03:20:03;;;;;;;10.82;2.47;;;4.00;99.90;;;;;;5012108;28;20033;-81
2022/04/11 03:22:29;;;;;;;4.97;2.45;;;4.00;99.90;;;;;;5013836;28;20022;-83
2022/04/11 03:24:54;;;;;;;6.35;2.30;;;3.90;99.90;;;;;;5012503;28;20073;-84
2022/04/11 03:27:20;;;;;;;2.63;2.35;;;3.90;99.90;;;;;;5011400;28;20022;-83
2022/04/11 03:29:45;;;;;;;4.35;2.08;;;3.90;99.90;;;;;;5011024;28;20461;-83
2022/04/11 03:32:13;;;;;;;4.82;2.53;;;3.80;99.90;;;;;;5012311;28;20057;-83
2022/04/11 03:34:39;;;;;;;4.68;2.25;;;3.60;99.90;;;;;;5012309;28;20131;-82
2022/04/11 03:37:04;;;;;;;3.13;2.45;;;3.60;99.90;;;;;;5011608;28;20053;-83
2022/04/11 03:39:30;;;;;;;4.65;1.95;;;3.50;99.90;;;;;;5014080;28;20030;-83
2022/04/11 03:41:56;;;;;;;5.30;2.92;;;3.40;99.90;;;;;;5014618;28;20034;-82
2022/04/11 03:44:21;;;;;;;7.18;3.22;;;3.50;99.90;;;;;;5014603;28;20057;-82
2022/04/11 03:46:47;;;;;;;4.32;2.28;;;3.50;99.90;;;;;;5014273;28;20022;-83
2022/04/11 03:49:14;;;;;;;4.60;2.60;;;3.50;99.90;;;;;;5014439;28;20026;-85
2022/04/11 03:51:40;;;;;;;9.90;3.03;;;3.50;99.90;;;;;;5036389;28;20022;-81
2022/04/11 03:54:05;;;;;;;6.47;2.95;;;3.50;99.90;;;;;;5025284;28;20061;-80
2022/04/11 03:56:31;;;;;;;8.85;2.88;;;3.50;99.90;;;;;;5014166;28;20041;-85
2022/04/11 03:58:57;;;;;;;5.07;3.13;;;3.50;99.90;;;;;;5014610;28;20029;-84
2022/04/11 04:01:22;;;;;;;7.47;2.40;;;3.50;99.90;;;;;;5014361;28;20026;-82
2022/04/11 04:03:48;;;;;;;5.20;2.38;;;3.50;99.90;;;;;;5014322;28;20033;-83
2022/04/11 04:06:13;;;;;;;7.32;3.20;;;3.50;99.90;;;;;;5014606;28;20470;-84
2022/04/11 04:08:40;;;;;;;6.75;2.42;;;3.40;99.90;;;;;;5016453;28;20026;-82
2022/04/11 04:11:06;;;;;;;6.10;2.35;;;3.40;99.90;;;;;;5014811;28;20057;-82
2022/04/11 04:13:34;;;;;;;5.40;2.50;;;3.40;99.90;;;;;;5013798;28;20037;-83
2022/04/11 04:16:01;;;;;;;9.10;3.20;;;3.40;99.90;;;;;;5013715;28;20033;-82
2022/04/11 04:18:26;;;;;;;8.70;3.25;;;3.40;99.90;;;;;;5013780;28;20030;-82
2022/04/11 04:20:52;;;;;;;6.97;2.40;;;3.40;99.90;;;;;;5013859;28;20026;-85
2022/04/11 04:23:18;;;;;;;5.85;2.63;;;3.40;99.90;;;;;;5013207;28;20089;-84
2022/04/11 04:25:43;;;;;;;5.45;2.17;;;3.40;99.90;;;;;;5015942;28;20332;-85
2022/04/11 04:28:09;;;;;;;5.05;2.67;;;3.50;99.90;;;;;;5019539;28;20081;-86
2022/04/11 04:30:35;;;;;;;4.40;2.28;;;3.70;99.90;;;;;;5025193;28;20029;-83
2022/04/11 04:33:00;;;;;;;4.43;2.45;;;3.70;99.90;;;;;;5019844;28;20129;-85
2022/04/11 04:35:27;;;;;;;4.22;1.98;;;3.80;99.90;;;;;;5016322;28;20121;-83
2022/04/11 04:37:53;;;;;;;7.68;2.45;;;3.90;99.90;;;;;;5013877;28;20033;-82
2022/04/11 04:40:19;;;;;;;6.10;2.30;;;3.90;99.90;;;;;;5014672;28;20040;-83
2022/04/11 04:42:45;;;;;;;6.97;2.60;;;4.00;99.90;;;;;;5013870;28;20571;-83
2022/04/11 04:45:12;;;;;;;7.75;2.40;;;4.00;99.90;;;;;;5003735;28;20030;-83
2022/04/11 04:47:38;;;;;;;6.82;2.38;;;4.00;99.90;;;;;;4994196;28;20467;-84
2022/04/11 04:50:04;;;;;;;5.00;2.40;;;4.00;99.90;;;;;;4995907;28;20038;-81
2022/04/11 04:52:30;;;;;;;6.43;2.67;;;4.00;99.90;;;;;;4994216;28;20497;-82
2022/04/11 04:54:55;;;;;;;3.75;2.25;;;4.00;99.90;;;;;;4993989;28;20026;-82
2022/04/11 04:57:23;;;;;;;4.45;2.03;;;4.00;99.90;;;;;;4994371;28;20031;-83
2022/04/11 04:59:49;;;;;;;7.15;2.20;;;4.10;99.90;;;;;;4994651;28;20053;-82
2022/04/11 05:02:14;;;;;;;7.63;2.45;;;4.20;99.90;;;;;;4993879;28;20422;-83
2022/04/11 05:04:41;;;;;;;7.45;2.08;;;4.10;99.90;;;;;;4994979;28;20051;-83
2022/04/11 05:07:07;;;;;;;6.85;2.50;;;4.20;99.90;;;;;;4993517;28;20023;-84
2022/04/11 05:09:32;;;;;;;7.63;2.30;;;4.20;99.90;;;;;;4994095;28;20026;-82
2022/04/11 05:11:58;;;;;;;6.03;2.42;;;4.20;99.90;;;;;;4995101;28;20039;-82
2022/04/11 05:14:24;;;;;;;5.60;2.40;;;4.20;99.90;;;;;;4994432;28;20049;-85
2022/04/11 05:16:49;;;;;;;13.13;3.03;;;4.30;99.90;;;;;;5007292;28;20060;-86
2022/04/11 05:19:16;;;;;;;6.47;2.33;;;4.30;99.90;;;;;;5014454;28;20062;-83
2022/04/11 05:21:42;;;;;;;8.07;2.65;;;4.30;99.90;;;;;;4995201;28;20038;-82
2022/04/11 05:24:07;;;;;;;5.40;2.58;;;4.30;99.90;;;;;;4994828;28;20031;-82
2022/04/11 05:26:35;;;;;;;8.57;2.28;;;4.40;99.90;;;;;;4994495;28;20030;-83
2022/04/11 05:29:00;;;;;;;4.55;2.13;;;4.40;99.90;;;;;;4994406;28;20038;-84
2022/04/11 05:31:28;;;;;;;8.10;2.33;;;4.40;99.90;;;;;;4993714;28;20065;-84
2022/04/11 05:33:54;;;;;;;4.97;2.13;;;4.40;99.90;;;;;;4994168;28;20471;-83
2022/04/11 05:36:19;;;;;;;5.63;2.60;;;4.50;99.90;;;;;;4997124;28;20022;-83
2022/04/11 05:38:45;;;;;;;5.40;2.05;;;4.50;99.90;;;;;;4995324;28;20083;-82
2022/04/11 05:41:11;;;;;;;5.60;2.28;;;4.50;99.90;;;;;;4995114;28;20027;-82
2022/04/11 05:43:37;;;;;;;6.72;2.28;;;4.60;99.90;;;;;;4994040;28;20022;-82
2022/04/11 05:46:02;;;;;;;4.20;2.50;;;4.70;99.90;;;;;;4995266;28;20023;-85
2022/04/11 05:48:30;;;;;;;5.93;2.45;;;4.80;99.90;;;;;;4995142;28;20034;-84
2022/04/11 05:50:59;;;;;;;7.35;2.38;;;4.90;99.90;;;;;;4995558;28;20030;-80
2022/04/11 05:53:25;;;;;;;4.88;2.05;;;5.00;99.90;;;;;;4996643;28;20022;-82
2022/04/11 05:55:52;;;;;;;4.15;2.08;;;5.20;99.90;;;;;;4993593;28;20042;-83
2022/04/11 05:58:18;;;;;;;4.47;1.70;;;5.40;99.90;;;;;;5003007;28;20056;-83
2022/04/11 06:00:43;;;;;;;4.45;1.85;;;5.60;99.90;;;;;;5013170;28;20050;-82
2022/04/11 06:03:09;;;;;;;7.43;2.45;;;5.80;99.90;;;;;;4994126;28;20031;-82
2022/04/11 06:05:37;;;;;;;4.35;1.73;;;6.10;99.90;;;;;;4999166;28;20022;-85
2022/04/11 06:08:03;;;;;;;5.07;2.60;;;6.30;99.90;;;;;;4995922;28;20125;-84
2022/04/11 06:10:31;;;;;;;6.20;2.60;;;6.50;99.90;;;;;;5001318;28;20057;-83
2022/04/11 06:12:57;;;;;;;4.95;2.08;;;6.60;99.90;;;;;;5003466;28;20026;-84
2022/04/11 06:15:34;;;;;;;4.75;2.00;;;6.90;99.90;;;;;;5002340;28;20033;-84
2022/04/11 06:18:03;;;;;;;6.63;2.40;;;7.10;99.90;;;;;;5013232;28;20027;-83
2022/04/11 06:20:29;;;;;;;4.20;1.83;;;7.30;98.90;;;;;;5007550;28;20455;-85
2022/04/11 06:22:54;;;;;;;6.55;2.13;;;7.60;98.00;;;;;;4995685;28;20109;-83
2022/04/11 06:25:20;;;;;;;4.70;2.00;;;7.80;96.30;;;;;;4997192;28;20462;-85
2022/04/11 06:27:46;;;;;;;3.95;2.00;;;8.30;95.20;;;;;;4994073;28;20442;-86
2022/04/11 06:30:12;;;;;;;6.05;2.30;;;8.50;93.30;;;;;;4994353;28;20030;-81
2022/04/11 06:32:40;;;;;;;4.07;1.83;;;8.70;91.30;;;;;;4994666;28;20094;-82
2022/04/11 06:35:06;;;;;;;5.00;1.85;;;8.90;90.20;;;;;;4995799;28;20114;-83
2022/04/11 06:37:31;;;;;;;5.63;2.08;;;8.90;87.30;;;;;;4993289;28;20552;-82
2022/04/11 06:39:58;;;;;;;6.38;2.20;;;8.80;90.00;;;;;;4992854;28;20117;-82
2022/04/11 06:42:24;;;;;;;4.45;1.83;;;8.60;90.50;;;;;;4993170;28;20391;-82
2022/04/11 06:44:49;;;;;;;5.93;2.35;;;8.50;90.70;;;;;;4993490;28;20049;-82
2022/04/11 06:47:15;;;;;;;3.60;2.15;;;8.50;91.50;;;;;;4992503;28;20060;-84
2022/04/11 06:49:41;;;;;;;5.38;1.92;;;8.50;91.70;;;;;;4992215;28;20031;-82
2022/04/11 06:52:07;;;;;;;4.78;2.03;;;8.70;92.20;;;;;;4994557;28;20057;-83
2022/04/11 06:54:33;;;;;;;4.05;1.60;;;8.90;91.40;;;;;;4994304;28;20058;-83
2022/04/11 06:57:00;;;;;;;7.50;2.00;;;9.30;92.30;;;;;;4996775;28;20375;-83
2022/04/11 06:59:26;;;;;;;4.75;2.10;;;9.50;89.20;;;;;;4994968;28;20026;-83
2022/04/11 07:01:52;;;;;;;4.22;1.92;;;10.00;89.80;;;;;;4995912;28;20586;-83
2022/04/11 07:04:18;;;;;;;4.78;1.90;;;10.20;82.90;;;;;;4997038;28;20026;-83
2022/04/11 07:06:44;;;;;;;5.65;1.65;;;10.40;82.00;;;;;;4999791;28;20037;-87
2022/04/11 07:09:11;;;;;;;4.95;1.90;;;10.60;80.40;;;;;;4996925;28;20026;-84
2022/04/11 07:11:36;;;;;;;5.60;1.88;;;10.80;78.90;;;;;;4994012;28;20475;-82
2022/04/11 07:14:07;;;;;;;3.97;1.70;;;10.90;77.80;;;;;;4998107;28;20026;-84
2022/04/11 07:16:33;;;;;;;2.90;1.77;;;11.10;80.90;;;;;;4980061;28;20058;-84
2022/04/11 07:18:59;;;;;;;4.53;2.08;;;11.40;78.60;;;;;;4995614;28;20121;-83
2022/04/11 07:21:25;;;;;;;2.88;1.88;;;11.60;75.50;;;;;;4995102;28;20033;-84
2022/04/11 07:23:51;;;;;;;4.20;1.63;;;11.60;74.50;;;;;;4995781;28;20027;-84
2022/04/11 07:26:16;;;;;;;2.70;1.77;;;11.40;74.40;;;;;;4995818;28;20090;-85
2022/04/11 07:28:42;;;;;;;7.22;1.85;;;11.50;74.50;;;;;;4995418;28;20117;-85
2022/04/11 07:31:10;;;;;;;4.93;2.05;;;11.70;75.90;;;;;;4996349;28;20037;-87
2022/04/11 07:33:35;;;;;;;3.58;1.63;;;11.80;73.10;;;;;;4996227;28;20093;-86
2022/04/11 07:36:01;;;;;;;4.80;1.90;;;11.80;73.30;;;;;;4996647;28;20117;-85
2022/04/11 07:38:27;;;;;;;6.28;2.05;;;11.70;72.50;;;;;;5006132;28;20038;-86
2022/04/11 07:40:53;;;;;;;6.60;2.22;;;11.90;72.40;;;;;;5015363;28;20040;-89
2022/04/11 07:43:19;;;;;;;4.55;2.00;;;12.00;71.70;;;;;;5016026;28;20026;-88
2022/04/11 07:45:50;;;;;;;7.75;1.80;;;12.50;74.00;;;;;;5015768;28;20045;-86
2022/04/11 07:48:16;;;;;;;8.82;2.25;;;12.50;69.90;;;;;;5017610;28;20108;-85
2022/04/11 07:50:41;;;;;;;4.10;2.15;;;12.60;69.00;;;;;;5017094;28;20491;-84
2022/04/11 07:53:11;;;;;;;3.92;1.92;;;12.70;71.80;;;;;;5015293;28;20045;-86
2022/04/11 07:55:36;;;;;;;5.63;2.00;;;13.00;70.50;;;;;;5017154;28;20036;-86
2022/04/11 07:58:05;;;;;;;4.15;2.03;;;13.20;69.30;;;;;;5015856;28;20053;-86
2022/04/11 08:00:30;;;;;;;4.45;2.22;;;13.50;68.70;;;;;;5016778;28;20030;-86
2022/04/11 08:02:57;;;;;;;5.60;1.85;;;13.60;67.70;;;;;;5018058;28;20421;-82
2022/04/11 08:05:26;;;;;;;8.90;1.90;;;13.70;66.60;;;;;;5018323;28;20474;-86
2022/04/11 08:07:52;;;;;;;4.63;1.90;;;14.00;66.70;;;;;;5032443;28;20044;-83
2022/04/11 08:10:18;;;;;;;4.82;2.40;;;14.20;63.60;;;;;;5028912;28;20037;-86
2022/04/11 08:13:00;;;;;;;5.75;1.85;;;14.20;65.10;;;;;;5016796;28;20032;-84
2022/04/11 08:15:27;;;;;;;5.28;2.15;;;14.20;65.70;;;;;;5015769;28;20041;-85
2022/04/11 08:17:56;;;;;;;6.60;2.30;;;14.60;65.40;;;;;;4997472;28;20052;-85
2022/04/11 08:20:23;;;;;;;6.15;2.47;;;14.70;62.60;;;;;;4997765;28;20408;-84
2022/04/11 08:22:49;;;;;;;4.75;2.13;;;14.50;62.30;;;;;;4996049;28;20026;-84
2022/04/11 08:25:15;;;;;;;6.53;2.17;;;14.30;64.10;;;;;;4996469;28;20494;-85
2022/04/11 08:27:41;;;;;;;3.88;1.90;;;14.70;64.70;;;;;;5002002;28;20026;-83
2022/04/11 08:30:09;;;;;;;6.38;2.17;;;14.90;62.70;;;;;;4996540;28;20098;-86
2022/04/11 08:32:42;;;;;;;4.55;2.15;;;14.90;63.00;;;;;;5012629;28;20026;-80
2022/04/11 08:35:09;;;;;;;6.68;2.25;;;15.20;62.30;;;;;;5006572;28;20041;-84
2022/04/11 08:37:40;;;;;;;4.45;2.05;;;15.40;61.70;;;;;;4995631;28;20026;-86
2022/04/11 08:40:06;;;;;;;3.92;2.30;;;15.30;58.90;;;;;;4995285;28;20034;-85
2022/04/11 08:42:32;;;;;;;2.97;1.70;;;14.90;58.80;;;;;;4995297;28;20057;-83
2022/04/11 08:45:00;;;;;;;4.35;2.15;;;14.70;59.60;;;;;;5004356;28;20018;-86
2022/04/11 08:47:26;;;;;;;5.00;2.50;;;14.70;61.90;;;;;;5014955;28;20140;-85
2022/04/11 08:49:55;;;;;;;5.30;2.50;;;14.80;60.50;;;;;;5018198;28;20065;-84
2022/04/11 08:52:22;;;;;;;6.35;2.25;;;15.00;59.60;;;;;;5013652;28;20033;-85
2022/04/11 08:54:50;;;;;;;3.70;1.80;;;15.40;60.00;;;;;;5014652;28;20026;-86
2022/04/11 08:57:16;;;;;;;6.35;2.75;;;15.80;61.50;;;;;;5012854;28;20026;-84
2022/04/11 08:59:42;;;;;;;5.78;2.40;;;16.10;58.20;;;;;;5016508;28;20466;-82
2022/04/11 09:02:17;;;;;;;6.95;2.75;;;15.70;56.50;;;;;;5023097;28;20022;-84
2022/04/11 09:04:57;;;;;;;5.60;2.10;;;15.70;57.90;;;;;;5026617;28;20041;-85
2022/04/11 09:07:27;;;;;;;6.00;2.50;;;15.40;57.30;;;;;;5019980;28;20020;-84
2022/04/11 09:09:59;;;;;;;5.63;2.13;;;15.40;57.20;;;;;;5022047;28;20093;-82
2022/04/11 09:12:24;;;;;;;9.10;2.60;;;15.90;59.00;;;;;;5013998;28;20436;-83
2022/04/11 09:14:56;;;;;;;5.80;2.53;;;15.90;55.70;;;;;;5015446;28;20030;-84
2022/04/11 09:17:28;;;;;;;7.45;2.22;;;16.00;57.30;;;;;;5015314;28;20029;-84
2022/04/11 09:20:21;;;;;;;5.45;2.55;;;16.30;55.70;;;;;;5015462;28;20097;-85
2022/04/11 09:22:48;;;;;;;6.15;2.08;;;15.80;54.70;;;;;;5014351;28;20021;-86
2022/04/11 09:25:19;;;;;;;3.70;1.95;;;15.90;55.10;;;;;;5012720;28;20067;-82
2022/04/11 09:27:45;;;;;;;4.95;1.65;;;16.00;53.70;;;;;;5014296;28;20030;-84
2022/04/11 09:30:25;;;;;;;4.20;1.95;;;15.70;53.10;;;;;;5014109;28;20033;-85
2022/04/11 09:32:57;;;;;;;9.98;2.35;;;15.60;53.00;;;;;;5018197;28;20018;-84
2022/04/11 09:35:25;;;;;;;5.78;2.55;;;15.90;53.30;;;;;;5015252;28;20045;-84
2022/04/11 09:38:18;;;;;;;5.28;2.15;;;16.00;55.10;;;;;;5015501;28;20112;-84
2022/04/11 09:40:50;;;;;;;4.90;2.00;;;16.00;53.80;;;;;;5016030;28;20060;-85
2022/04/11 09:43:18;;;;;;;4.70;2.20;;;16.30;54.90;;;;;;5021234;28;20022;-85
2022/04/11 09:45:45;;;;;;;4.10;2.08;;;16.80;53.00;;;;;;5001898;28;20092;-84
2022/04/11 09:48:15;;;;;;;5.45;2.67;;;16.80;53.00;;;;;;4996395;28;20022;-84
2022/04/11 09:50:40;;;;;;;7.90;2.35;;;16.60;52.10;;;;;;4993620;28;20023;-84
2022/04/11 09:53:14;;;;;;;4.28;2.25;;;16.60;51.80;;;;;;4992856;28;20033;-82
2022/04/11 09:55:42;;;;;;;3.85;2.65;;;16.80;51.50;;;;;;4996115;28;20029;-85
2022/04/11 09:58:08;;;;;;;4.38;3.00;;;17.00;51.70;;;;;;4994946;28;20026;-86
2022/04/11 10:00:35;;;;;;;6.55;3.05;;;16.70;50.10;;;;;;4997192;28;20106;-83
2022/04/11 10:03:02;;;;;;;6.32;2.70;;;16.80;51.60;;;;;;4993505;28;20066;-82
2022/04/11 10:05:28;;;;;;;7.32;2.65;;;17.10;53.60;;;;;;4996749;28;20053;-84
2022/04/11 10:07:55;;;;;;;7.35;2.70;;;17.10;51.50;;;;;;4992803;28;20022;-84
2022/04/11 10:10:23;;;;;;;3.95;2.40;;;16.80;51.30;;;;;;4997226;28;20011;-84
2022/04/11 10:12:51;;;;;;;6.75;2.50;;;16.60;52.60;;;;;;4999435;28;20045;-84
2022/04/11 10:15:17;;;;;;;4.70;2.15;;;17.00;53.30;;;;;;5015367;28;20210;-80
2022/04/11 10:17:44;;;;;;;5.43;2.28;;;17.50;52.10;;;;;;4996553;28;20026;-86
2022/04/11 10:20:09;;;;;;;5.45;2.40;;;17.80;50.30;;;;;;4993682;28;20173;-86
2022/04/11 10:22:46;;;;;;;3.17;2.38;;;17.70;49.50;;;;;;4993278;28;20042;-83
2022/04/11 10:25:15;;;;;;;4.30;1.95;;;17.60;51.00;;;;;;4998322;28;20113;-87
2022/04/11 10:27:41;;;;;;;6.57;3.15;;;17.50;50.30;;;;;;4995655;28;20053;-86
2022/04/11 10:30:28;;;;;;;6.80;2.60;;;16.90;51.50;;;;;;4997279;28;20026;-86
2022/04/11 10:32:55;;;;;;;4.07;2.30;;;16.60;51.60;;;;;;4997534;28;20109;-83
2022/04/11 10:35:42;;;;;;;5.80;2.38;;;16.30;53.20;;;;;;4994540;28;20031;-81
2022/04/11 10:38:09;;;;;;;3.28;2.05;;;16.50;51.60;;;;;;4996944;28;20046;-82
2022/04/11 10:40:37;;;;;;;6.93;2.22;;;16.70;52.00;;;;;;4996776;28;20041;-80
2022/04/11 10:43:08;;;;;;;4.65;2.00;;;17.00;52.60;;;;;;4995485;28;20390;-81
2022/04/11 10:45:41;;;;;;;7.00;2.95;;;17.20;50.90;;;;;;5007741;28;20022;-82
2022/04/11 10:48:08;;;;;;;4.80;2.15;;;17.30;50.20;;;;;;5014990;28;20030;-81
2022/04/11 10:50:34;;;;;;;2.95;2.15;;;17.50;50.10;;;;;;5018620;28;20080;-84
2022/04/11 10:53:13;;;;;;;4.15;2.08;;;17.70;51.10;;;;;;5018042;28;20072;-83
2022/04/11 10:56:02;;;;;;;4.60;2.22;;;17.80;48.90;;;;;;5017925;28;20029;-85
2022/04/11 10:58:47;;;;;;;5.68;1.90;;;17.90;47.60;;;;;;5016796;28;20033;-84
2022/04/11 11:01:13;;;;;;;4.38;2.35;;;17.90;47.70;;;;;;5016779;28;20026;-84
2022/04/11 11:03:40;;;;;;;3.65;2.00;;;17.80;48.80;;;;;;5021167;28;20367;-83
2022/04/11 11:06:17;;;;;;;5.13;2.28;;;17.90;49.00;;;;;;5022553;28;20026;-85
2022/04/11 11:08:43;;;;;;;4.88;2.13;;;17.90;48.00;;;;;;5018216;28;20108;-84
2022/04/11 11:11:26;;;;;;;7.88;2.40;;;17.60;49.00;;;;;;5018046;28;20073;-83
2022/04/11 11:13:57;;;;;;;6.13;2.35;;;17.40;47.90;;;;;;5016619;28;20030;-85
2022/04/11 11:16:22;;;;;;;2.97;1.92;;;17.10;49.30;;;;;;5016311;28;20072;-88
2022/04/11 11:21:15;;;;;;;4.25;1.90;;;17.50;47.30;;;;;;5017512;28;20088;-82
2022/04/11 11:23:42;;;;;;;3.92;2.15;;;17.80;48.50;;;;;;5016078;28;20069;-83
2022/04/11 11:26:12;;;;;;;4.95;2.28;;;18.30;46.70;;;;;;5015303;28;20073;-84
2022/04/11 11:28:43;;;;;;;7.47;1.80;;;18.60;47.10;;;;;;5019055;28;20076;-85
2022/04/11 11:31:09;;;;;;;3.70;2.00;;;18.60;45.60;;;;;;5016500;28;20022;-86
2022/04/11 11:33:36;;;;;;;7.43;1.70;;;18.30;46.00;;;;;;5018587;28;20029;-85
2022/04/11 11:36:02;;;;;;;7.10;2.97;;;18.00;45.60;;;;;;5017539;28;20112;-84
2022/04/11 11:38:31;;;;;;;6.00;1.85;;;17.80;46.00;;;;;;5016848;28;20029;-84
2022/04/11 11:41:01;;;;;;;3.63;1.83;;;17.80;44.40;;;;;;5014956;28;20033;-86
2022/04/11 11:43:28;;;;;;;6.88;1.77;;;17.50;47.00;;;;;;5014948;28;20022;-87
2022/04/11 11:46:02;;;;;;;5.82;2.15;;;17.50;46.60;;;;;;5015441;28;20367;-86
2022/04/11 11:48:30;;;;;;;3.22;1.90;;;17.50;45.80;;;;;;5031489;28;20018;-80
2022/04/11 11:51:01;;;;;;;4.68;1.90;;;17.70;44.90;;;;;;5020936;28;20474;-82
2022/04/11 11:53:51;;;;;;;4.20;2.13;;;17.70;45.40;;;;;;5024516;28;20049;-84
2022/04/11 11:56:20;;;;;;;3.95;2.25;;;18.00;48.30;;;;;;5018997;28;20095;-83
2022/04/11 11:58:47;;;;;;;3.67;1.73;;;17.90;45.80;;;;;;5023152;28;20488;-84
2022/04/11 12:01:14;;;;;;;3.20;1.92;;;18.00;44.20;;;;;;5017691;28;20177;-83
2022/04/11 12:06:31;;;;;;;2.92;1.90;;;17.90;46.50;;;;;;5018666;28;20405;-85
2022/04/11 12:08:58;;;;;;;3.13;2.00;;;18.10;46.20;;;;;;5027727;28;20022;-83
2022/04/11 12:11:25;;;;;;;4.88;2.05;;;18.00;46.70;;;;;;5022072;28;20029;-86
2022/04/11 12:14:09;;;;;;;3.45;2.13;;;17.70;45.70;;;;;;5017844;28;20470;-85
2022/04/11 12:16:56;;;;;;;3.70;1.80;;;17.50;46.60;;;;;;5016008;28;20488;-85
2022/04/11 12:19:35;;;;;;;;;;;17.60;46.40;;;;;;5019899;28;20026;-87
2022/04/11 12:22:14;;;;;;;3.55;2.30;;;17.70;48.10;;;;;;5036554;28;19901;-79
2022/04/11 12:24:41;;;;;;;4.35;2.40;;;17.80;46.80;;;;;;5024771;28;20049;-82
2022/04/11 12:27:13;;;;;;;3.97;2.40;;;17.70;45.70;;;;;;5016224;28;20389;-83
2022/04/11 12:29:44;;;;;;;5.32;2.85;;;17.60;47.60;;;;;;5015727;28;20022;-85
2022/04/11 12:32:14;;;;;;;3.50;2.10;;;17.70;46.20;;;;;;5016244;28;20018;-84
2022/04/11 12:34:44;;;;;;;5.78;2.70;;;17.70;45.90;;;;;;5017631;28;20017;-86
2022/04/11 12:37:13;;;;;;;3.85;2.03;;;17.80;46.90;;;;;;5017341;28;20030;-84
2022/04/11 12:39:52;;;;;;;5.72;1.90;;;18.00;46.00;;;;;;5016760;28;20340;-84
2022/04/11 12:42:25;;;;;;;2.95;1.75;;;17.90;45.50;;;;;;5017887;28;20498;-86
2022/04/11 12:45:05;;;;;;;4.60;2.42;;;18.00;46.60;;;;;;5010957;28;20467;-86
2022/04/11 12:47:32;;;;;;;3.53;1.70;;;17.80;46.50;;;;;;5013528;28;20093;-84
2022/04/11 12:49:58;;;;;;;6.30;2.13;;;17.70;48.00;;;;;;5010840;28;20026;-79
2022/04/11 12:52:27;;;;;;;3.58;2.25;;;17.70;46.80;;;;;;5006462;28;20038;-82
2022/04/11 12:55:11;;;;;;;4.35;2.30;;;17.70;47.60;;;;;;5000950;28;20026;-84
2022/04/11 12:57:37;;;;;;;5.72;2.50;;;18.10;47.20;;;;;;5001138;28;20467;-84
2022/04/11 13:00:14;;;;;;;4.75;2.45;;;17.90;47.00;;;;;;4998236;28;20029;-86
2022/04/11 13:02:39;;;;;;;3.45;2.25;;;17.90;47.90;;;;;;5004131;28;20117;-84